createdAt,value
2019-03-28T00:00:31.148Z,14.90
2019-03-28T00:03:00.728Z,13.40
2019-03-28T00:05:30.354Z,12.00
2019-03-28T00:07:59.941Z,11.50
2019-03-28T00:10:29.526Z,11.73
2019-03-28T00:12:59.134Z,10.83
2019-03-28T00:15:29.740Z,9.43
2019-03-28T00:17:59.358Z,15.80
2019-03-28T00:20:28.976Z,19.77
2019-03-28T00:23:16.126Z,14.40
2019-03-28T00:25:45.718Z,25.13
2019-03-28T00:28:15.301Z,13.33
2019-03-28T00:30:44.926Z,12.00
2019-03-28T00:33:14.533Z,10.20
2019-03-28T00:35:44.239Z,10.77
2019-03-28T00:38:13.853Z,13.17
2019-03-28T00:40:43.441Z,11.27
2019-03-28T00:43:13.057Z,11.73
2019-03-28T00:45:44.555Z,10.87
2019-03-28T00:48:13.982Z,11.40
2019-03-28T00:50:43.586Z,16.00
2019-03-28T00:53:13.194Z,15.57
2019-03-28T00:55:42.879Z,12.97
2019-03-28T00:58:12.481Z,10.70
2019-03-28T01:00:42.090Z,10.57
2019-03-28T01:03:11.704Z,8.70
2019-03-28T01:05:42.191Z,10.17
2019-03-28T01:08:12.212Z,8.30
2019-03-28T01:10:42.285Z,12.50
2019-03-28T01:13:11.877Z,12.67
2019-03-28T01:15:41.561Z,11.70
2019-03-28T01:18:11.151Z,8.67
2019-03-28T01:20:40.879Z,10.77
2019-03-28T01:23:10.497Z,8.87
2019-03-28T01:25:40.086Z,11.50
2019-03-28T01:28:09.814Z,8.80
2019-03-28T01:30:39.421Z,10.00
2019-03-28T01:33:09.010Z,12.50
2019-03-28T01:35:38.603Z,8.60
2019-03-28T01:38:08.219Z,8.60
2019-03-28T01:40:37.801Z,9.57
2019-03-28T01:43:07.415Z,10.00
2019-03-28T01:45:37.028Z,8.57
2019-03-28T01:48:06.657Z,10.93
2019-03-28T01:50:36.266Z,9.27
2019-03-28T01:53:05.923Z,11.37
2019-03-28T01:55:35.585Z,8.77
2019-03-28T01:58:05.436Z,8.70
2019-03-28T02:00:35.177Z,7.20
2019-03-28T02:03:04.877Z,8.13
2019-03-28T02:05:34.471Z,7.57
2019-03-28T02:08:04.061Z,8.73
2019-03-28T02:10:33.675Z,9.00
2019-03-28T02:13:03.353Z,7.60
2019-03-28T02:15:32.956Z,8.43
2019-03-28T02:18:03.288Z,11.30
2019-03-28T02:20:32.960Z,6.73
2019-03-28T02:23:02.522Z,7.17
2019-03-28T02:25:32.204Z,6.27
2019-03-28T02:28:01.820Z,7.73
2019-03-28T02:30:33.954Z,6.47
2019-03-28T02:33:03.575Z,14.13
2019-03-28T02:35:33.190Z,11.57
2019-03-28T02:38:02.774Z,6.47
2019-03-28T02:40:32.418Z,8.63
2019-03-28T02:43:01.978Z,11.90
2019-03-28T02:45:31.732Z,11.73
2019-03-28T02:48:01.782Z,10.27
2019-03-28T02:50:31.621Z,13.27
2019-03-28T02:53:01.241Z,11.77
2019-03-28T02:55:30.833Z,9.53
2019-03-28T02:58:00.416Z,9.93
2019-03-28T03:00:30.169Z,11.97
2019-03-28T03:02:59.782Z,8.77
2019-03-28T03:05:29.439Z,9.67
2019-03-28T03:07:59.126Z,7.07
2019-03-28T03:10:28.813Z,5.33
2019-03-28T03:12:58.408Z,10.10
2019-03-28T03:15:27.991Z,9.40
2019-03-28T03:17:57.597Z,7.13
2019-03-28T03:20:27.213Z,8.47
2019-03-28T03:22:56.808Z,6.40
2019-03-28T03:25:26.427Z,7.67
2019-03-28T03:27:58.347Z,7.37
2019-03-28T03:30:27.333Z,9.73
2019-03-28T03:32:56.935Z,6.93
2019-03-28T03:35:26.567Z,6.27
2019-03-28T03:37:56.298Z,7.90
2019-03-28T03:40:25.959Z,11.77
2019-03-28T03:42:56.786Z,8.17
2019-03-28T03:45:26.801Z,9.73
2019-03-28T03:47:56.487Z,10.97
2019-03-28T03:50:28.832Z,6.63
2019-03-28T03:52:58.704Z,8.83
2019-03-28T03:55:28.362Z,6.90
2019-03-28T03:58:14.441Z,8.30
2019-03-28T04:00:34.836Z,7.23
2019-03-28T04:03:04.758Z,11.57
2019-03-28T04:05:34.382Z,8.63
2019-03-28T04:08:03.998Z,7.37
2019-03-28T04:10:33.598Z,7.40
2019-03-28T04:13:03.213Z,8.10
2019-03-28T04:15:32.839Z,10.07
2019-03-28T04:18:02.461Z,7.07
2019-03-28T04:20:32.064Z,6.63
2019-03-28T04:23:01.663Z,7.57
2019-03-28T04:25:31.260Z,6.20
2019-03-28T04:28:01.050Z,7.20
2019-03-28T04:30:30.639Z,7.97
2019-03-28T04:33:00.290Z,9.40
2019-03-28T04:35:29.974Z,9.90
2019-03-28T04:37:59.809Z,9.40
2019-03-28T04:40:29.422Z,12.37
2019-03-28T04:42:59.029Z,15.73
2019-03-28T04:45:28.732Z,9.70
2019-03-28T04:47:58.326Z,28.73
2019-03-28T04:50:28.050Z,15.20
2019-03-28T04:52:57.640Z,7.33
2019-03-28T04:55:27.262Z,10.17
2019-03-28T04:57:56.876Z,15.53
2019-03-28T05:00:26.555Z,14.70
2019-03-28T05:02:56.177Z,11.07
2019-03-28T05:05:25.787Z,25.03
2019-03-28T05:07:55.480Z,8.20
2019-03-28T05:10:25.094Z,9.93
2019-03-28T05:12:54.711Z,10.87
2019-03-28T05:15:24.407Z,10.80
2019-03-28T05:17:54.018Z,8.33
2019-03-28T05:20:23.697Z,15.87
2019-03-28T05:22:53.317Z,11.20
2019-03-28T05:25:22.934Z,11.93
2019-03-28T05:27:52.626Z,12.33
2019-03-28T05:30:22.235Z,14.30
2019-03-28T05:32:51.843Z,14.67
2019-03-28T05:35:21.532Z,12.73
2019-03-28T05:37:51.121Z,10.97
2019-03-28T05:40:22.854Z,7.03
2019-03-28T05:42:52.139Z,10.40
2019-03-28T05:45:21.745Z,10.67
2019-03-28T05:47:51.333Z,8.37
2019-03-28T05:50:20.941Z,9.67
2019-03-28T05:52:50.530Z,14.20
2019-03-28T05:55:20.150Z,18.47
2019-03-28T05:57:49.966Z,14.00
2019-03-28T06:00:19.760Z,12.17
2019-03-28T06:02:50.020Z,10.07
2019-03-28T06:05:20.017Z,9.17
2019-03-28T06:07:49.630Z,9.47
2019-03-28T06:10:20.191Z,19.30
2019-03-28T06:12:49.804Z,9.67
2019-03-28T06:15:19.465Z,8.87
2019-03-28T06:17:49.076Z,8.47
2019-03-28T06:20:18.900Z,10.53
2019-03-28T06:22:48.521Z,11.80
2019-03-28T06:25:18.130Z,13.83
2019-03-28T06:27:47.715Z,12.60
2019-03-28T06:30:18.340Z,16.87
2019-03-28T06:32:47.995Z,21.90
2019-03-28T06:35:18.300Z,24.53
2019-03-28T06:37:51.180Z,23.20
2019-03-28T06:40:19.458Z,24.47
2019-03-28T06:42:49.070Z,26.07
2019-03-28T06:45:18.659Z,23.13
2019-03-28T06:47:48.275Z,22.07
2019-03-28T06:50:18.096Z,21.10
2019-03-28T06:52:47.702Z,24.50
2019-03-28T06:55:17.328Z,26.37
2019-03-28T06:57:46.921Z,22.53
2019-03-28T07:00:17.821Z,18.63
2019-03-28T07:02:47.434Z,23.00
2019-03-28T07:05:17.558Z,13.53
2019-03-28T07:07:47.242Z,18.33
2019-03-28T07:10:18.053Z,16.63
2019-03-28T07:12:47.662Z,19.63
2019-03-28T07:15:17.421Z,16.37
2019-03-28T07:17:47.038Z,28.83
2019-03-28T07:20:18.301Z,12.63
2019-03-28T07:22:47.906Z,13.87
2019-03-28T07:25:17.516Z,15.23
2019-03-28T07:27:47.235Z,13.13
2019-03-28T07:30:17.721Z,17.27
2019-03-28T07:32:47.415Z,13.07
2019-03-28T07:35:17.040Z,25.03
2019-03-28T07:37:46.721Z,17.97
2019-03-28T07:40:16.779Z,29.90
2019-03-28T07:42:46.455Z,22.00
2019-03-28T07:45:16.462Z,21.97
2019-03-28T07:47:46.100Z,17.27
2019-03-28T07:50:16.377Z,19.50
2019-03-28T07:52:46.149Z,20.27
2019-03-28T07:55:16.681Z,14.57
2019-03-28T07:57:46.543Z,14.80
2019-03-28T08:00:18.037Z,14.63
2019-03-28T08:02:47.666Z,12.57
2019-03-28T08:05:17.563Z,14.83
2019-03-28T08:07:47.364Z,11.33
2019-03-28T08:10:17.435Z,13.40
2019-03-28T08:12:47.098Z,12.60
2019-03-28T08:15:18.462Z,11.97
2019-03-28T08:17:48.070Z,11.67
2019-03-28T08:20:18.494Z,10.70
2019-03-28T08:22:48.176Z,14.80
2019-03-28T08:25:17.958Z,12.67
2019-03-28T08:27:47.608Z,12.33
2019-03-28T08:30:19.665Z,14.13
2019-03-28T08:32:49.350Z,16.13
2019-03-28T08:35:18.951Z,19.37
2019-03-28T08:37:48.730Z,11.70
2019-03-28T08:40:39.614Z,15.37
2019-03-28T08:43:09.236Z,14.70
2019-03-28T08:45:38.860Z,16.70
2019-03-28T08:48:08.631Z,21.33
2019-03-28T08:50:38.357Z,19.47
2019-03-28T08:53:07.916Z,15.70
2019-03-28T08:55:37.608Z,17.73
2019-03-28T08:58:08.099Z,17.80
2019-03-28T09:03:25.110Z,16.67
2019-03-28T09:05:54.804Z,10.57
2019-03-28T09:08:24.400Z,11.47
2019-03-28T09:10:54.024Z,9.70
2019-03-28T09:13:23.730Z,12.10
2019-03-28T09:16:11.895Z,12.07
2019-03-28T09:21:28.747Z,10.60
2019-03-28T09:23:58.431Z,11.23
2019-03-28T09:26:28.062Z,9.47
2019-03-28T09:28:57.691Z,10.40
2019-03-28T09:31:27.453Z,14.77
2019-03-28T09:33:57.086Z,11.77
2019-03-28T09:36:26.701Z,16.83
2019-03-28T09:38:56.325Z,10.17
2019-03-28T09:41:25.993Z,11.83
2019-03-28T09:43:56.073Z,9.60
2019-03-28T09:46:25.698Z,13.53
2019-03-28T09:48:55.492Z,8.10
2019-03-28T09:51:25.194Z,8.73
2019-03-28T09:53:54.862Z,9.10
2019-03-28T09:56:24.480Z,7.63
2019-03-28T09:58:54.075Z,7.93
2019-03-28T10:01:23.706Z,9.77
2019-03-28T10:03:53.300Z,11.80
2019-03-28T10:06:22.960Z,11.13
2019-03-28T10:08:52.523Z,11.80
2019-03-28T10:11:22.143Z,8.70
2019-03-28T10:13:51.740Z,8.10
2019-03-28T10:16:21.399Z,8.03
2019-03-28T10:18:50.997Z,9.77
2019-03-28T10:21:20.689Z,8.30
2019-03-28T10:23:50.303Z,8.97
2019-03-28T10:26:19.934Z,7.87
2019-03-28T10:28:49.602Z,11.03
2019-03-28T10:31:19.234Z,9.07
2019-03-28T10:33:48.921Z,9.57
2019-03-28T10:36:18.518Z,7.73
2019-03-28T10:38:48.146Z,8.80
2019-03-28T10:41:17.811Z,7.53
2019-03-28T10:43:47.410Z,11.00
2019-03-28T10:46:17.038Z,8.57
2019-03-28T10:48:46.631Z,9.77
2019-03-28T10:51:16.259Z,11.50
2019-03-28T10:53:45.892Z,10.17
2019-03-28T10:56:21.988Z,16.77
2019-03-28T10:58:46.833Z,14.10
2019-03-28T11:01:21.552Z,13.70
2019-03-28T11:03:47.777Z,10.00
2019-03-28T11:06:17.400Z,12.70
2019-03-28T11:08:47.018Z,10.07
2019-03-28T11:11:16.713Z,9.83
2019-03-28T11:13:46.312Z,13.33
2019-03-28T11:16:15.931Z,8.20
2019-03-28T11:18:45.555Z,12.57
2019-03-28T11:21:15.198Z,9.13
2019-03-28T11:23:44.819Z,8.90
2019-03-28T11:26:14.420Z,39.30
2019-03-28T11:28:44.055Z,31.93
2019-03-28T11:31:13.650Z,7.83
2019-03-28T11:33:43.248Z,10.90
2019-03-28T11:36:12.944Z,7.10
2019-03-28T11:38:42.538Z,9.73
2019-03-28T11:41:12.232Z,10.73
2019-03-28T11:43:41.875Z,6.73
2019-03-28T11:46:11.512Z,9.33
2019-03-28T11:48:41.194Z,7.30
2019-03-28T11:51:10.818Z,7.13
2019-03-28T11:53:40.410Z,7.40
2019-03-28T11:56:10.033Z,11.23
2019-03-28T11:58:39.633Z,8.37
2019-03-28T12:01:09.345Z,10.53
2019-03-28T12:03:39.049Z,9.47
2019-03-28T12:06:08.671Z,7.90
2019-03-28T12:08:38.263Z,8.43
2019-03-28T12:11:07.877Z,10.07
2019-03-28T12:13:44.812Z,16.43
2019-03-28T12:16:08.836Z,7.23
2019-03-28T12:18:38.455Z,8.57
2019-03-28T12:21:08.049Z,6.57
2019-03-28T12:23:37.672Z,10.33
2019-03-28T12:26:07.297Z,7.87
2019-03-28T12:28:36.964Z,6.30
2019-03-28T12:31:06.587Z,7.57
2019-03-28T12:33:36.180Z,6.53
2019-03-28T12:36:05.870Z,7.00
2019-03-28T12:38:35.501Z,6.30
2019-03-28T12:41:05.755Z,6.23
2019-03-28T12:43:35.380Z,6.57
2019-03-28T12:46:05.036Z,11.00
2019-03-28T12:48:34.654Z,5.70
2019-03-28T12:51:04.352Z,14.60
2019-03-28T12:53:33.946Z,5.30
2019-03-28T12:56:03.567Z,5.60
2019-03-28T12:58:33.194Z,8.53
2019-03-28T13:01:02.809Z,5.60
2019-03-28T13:03:44.915Z,4.43
2019-03-28T13:06:03.747Z,6.47
2019-03-28T13:08:33.359Z,6.40
2019-03-28T13:11:02.978Z,4.93
2019-03-28T13:13:32.586Z,4.93
2019-03-28T13:16:02.249Z,7.50
2019-03-28T13:18:31.872Z,4.43
2019-03-28T13:21:12.804Z,4.83
2019-03-28T13:23:32.804Z,6.23
2019-03-28T13:26:02.429Z,5.90
2019-03-28T13:28:32.018Z,9.00
2019-03-28T13:31:01.636Z,10.10
2019-03-28T13:33:31.232Z,4.50
2019-03-28T13:36:00.857Z,9.07
2019-03-28T13:38:30.450Z,4.03
2019-03-28T13:41:00.075Z,10.77
2019-03-28T13:43:30.589Z,8.77
2019-03-28T13:46:00.370Z,5.50
2019-03-28T13:48:29.981Z,3.97
2019-03-28T13:50:59.642Z,9.90
2019-03-28T13:53:39.418Z,9.13
2019-03-28T13:56:00.621Z,6.40
2019-03-28T13:58:30.213Z,7.47
2019-03-28T14:00:59.897Z,6.13
2019-03-28T14:03:29.519Z,4.43
2019-03-28T14:05:59.112Z,5.00
2019-03-28T14:08:28.812Z,5.90
2019-03-28T14:10:58.406Z,5.07
2019-03-28T14:13:28.137Z,4.90
2019-03-28T14:15:58.270Z,6.63
2019-03-28T14:18:27.966Z,2.87
2019-03-28T14:20:57.646Z,7.97
2019-03-28T14:23:27.313Z,5.07
2019-03-28T14:25:56.907Z,4.33
2019-03-28T14:28:26.528Z,2.13
2019-03-28T14:30:56.118Z,2.33
2019-03-28T14:33:27.310Z,2.80
2019-03-28T14:35:57.023Z,3.77
2019-03-28T14:38:26.645Z,5.57
2019-03-28T14:40:58.369Z,3.07
2019-03-28T14:43:27.592Z,3.43
2019-03-28T14:45:57.182Z,1.70
2019-03-28T14:48:26.775Z,2.40
2019-03-28T14:50:56.541Z,1.53
2019-03-28T14:53:26.135Z,1.40
2019-03-28T14:55:56.465Z,1.53
2019-03-28T14:58:28.096Z,2.30
2019-03-28T15:00:57.691Z,3.30
2019-03-28T15:03:27.801Z,2.93
2019-03-28T15:05:58.589Z,1.83
2019-03-28T15:08:28.270Z,1.50
2019-03-28T15:10:57.888Z,1.43
2019-03-28T15:13:27.512Z,1.33
2019-03-28T15:15:57.174Z,0.97
2019-03-28T15:18:26.790Z,1.30
2019-03-28T15:20:56.382Z,1.50
2019-03-28T15:23:25.997Z,1.60
2019-03-28T15:25:55.694Z,1.63
2019-03-28T15:28:25.299Z,1.67
2019-03-28T15:30:55.723Z,1.00
2019-03-28T15:33:38.310Z,1.03
2019-03-28T15:35:56.822Z,1.23
2019-03-28T15:38:26.443Z,1.23
2019-03-28T15:40:56.035Z,1.43
2019-03-28T15:43:25.649Z,1.27
2019-03-28T15:45:55.271Z,1.70
2019-03-28T15:48:24.865Z,1.40
2019-03-28T15:50:54.479Z,1.50
2019-03-28T15:53:24.103Z,1.77
2019-03-28T15:55:53.728Z,2.13
2019-03-28T15:58:23.851Z,1.57
2019-03-28T16:00:54.187Z,1.93
2019-03-28T16:03:23.810Z,9.00
2019-03-28T16:05:58.627Z,1.83
2019-03-28T16:08:24.746Z,1.20
2019-03-28T16:10:54.338Z,1.73
2019-03-28T16:13:23.946Z,1.73
2019-03-28T16:15:53.608Z,1.57
2019-03-28T16:18:23.238Z,2.03
2019-03-28T16:20:53.543Z,1.30
2019-03-28T16:23:23.203Z,1.03
2019-03-28T16:25:52.964Z,2.70
2019-03-28T16:28:22.558Z,1.80
2019-03-28T16:30:52.250Z,0.80
2019-03-28T16:33:21.843Z,1.40
2019-03-28T16:35:51.462Z,2.80
2019-03-28T16:38:21.056Z,7.53
2019-03-28T16:40:50.686Z,3.70
2019-03-28T16:43:20.284Z,4.30
2019-03-28T16:45:49.903Z,4.77
2019-03-28T16:48:19.491Z,3.13
2019-03-28T16:50:49.207Z,3.87
2019-03-28T16:53:18.872Z,5.33
2019-03-28T16:55:48.484Z,7.43
2019-03-28T16:58:18.110Z,4.17
2019-03-28T17:00:47.709Z,4.70
2019-03-28T17:03:17.396Z,7.70
2019-03-28T17:05:47.360Z,7.70
2019-03-28T17:08:17.792Z,6.83
2019-03-28T17:10:52.428Z,5.60
2019-03-28T17:13:22.159Z,12.80
2019-03-28T17:15:51.938Z,4.43
2019-03-28T17:18:21.733Z,4.03
2019-03-28T17:20:51.436Z,7.33
2019-03-28T17:23:21.355Z,4.23
2019-03-28T17:25:51.088Z,14.27
2019-03-28T17:28:20.933Z,25.77
2019-03-28T17:30:50.532Z,11.20
2019-03-28T17:33:20.349Z,11.87
2019-03-28T17:35:49.996Z,9.77
2019-03-28T17:38:20.370Z,4.77
2019-03-28T17:40:50.093Z,4.47
2019-03-28T17:43:19.794Z,15.00
2019-03-28T17:45:49.626Z,9.60
2019-03-28T17:48:19.249Z,7.67
2019-03-28T17:50:48.857Z,6.13
2019-03-28T17:53:19.522Z,16.37
2019-03-28T17:55:49.307Z,7.93
2019-03-28T17:58:18.893Z,15.10
2019-03-28T18:00:49.091Z,7.80
2019-03-28T18:03:30.459Z,7.43
2019-03-28T18:05:58.031Z,6.90
2019-03-28T18:08:21.336Z,6.47
2019-03-28T18:10:50.957Z,5.17
2019-03-28T18:13:20.647Z,5.67
2019-03-28T18:15:50.240Z,8.30
2019-03-28T18:18:19.862Z,5.23
2019-03-28T18:20:49.522Z,7.87
2019-03-28T18:23:19.143Z,6.70
2019-03-28T18:25:48.767Z,7.67
2019-03-28T18:28:18.373Z,13.33
2019-03-28T18:30:47.995Z,10.20
2019-03-28T18:33:17.592Z,13.87
2019-03-28T18:35:47.254Z,11.00
2019-03-28T18:38:16.874Z,9.07
2019-03-28T18:40:46.872Z,12.00
2019-03-28T18:43:16.579Z,20.67
2019-03-28T18:45:46.261Z,14.40
2019-03-28T18:48:27.443Z,7.87
2019-03-28T18:50:47.220Z,7.37
2019-03-28T18:53:16.815Z,10.40
2019-03-28T18:55:46.450Z,12.20
2019-03-28T18:58:16.043Z,11.33
2019-03-28T19:00:48.061Z,7.33
2019-03-28T19:03:16.978Z,6.57
2019-03-28T19:05:46.607Z,6.40
2019-03-28T19:08:16.198Z,8.63
2019-03-28T19:10:45.819Z,6.77
2019-03-28T19:13:15.447Z,7.63
2019-03-28T19:15:45.061Z,7.27
2019-03-28T19:18:14.651Z,5.47
2019-03-28T19:20:44.275Z,8.47
2019-03-28T19:23:14.441Z,9.60
2019-03-28T19:25:46.705Z,10.83
2019-03-28T19:28:27.999Z,6.90
2019-03-28T19:30:46.717Z,7.07
2019-03-28T19:33:16.350Z,6.10
2019-03-28T19:35:47.642Z,11.23
2019-03-28T19:38:18.153Z,17.73
2019-03-28T19:40:47.776Z,14.97
2019-03-28T19:43:20.889Z,13.83
2019-03-28T19:45:48.992Z,18.10
2019-03-28T19:48:18.659Z,18.43
2019-03-28T19:50:48.290Z,17.93
2019-03-28T19:53:18.222Z,19.70
2019-03-28T19:55:47.789Z,12.47
2019-03-28T19:58:17.418Z,14.77
2019-03-28T20:00:47.009Z,14.07
2019-03-28T20:03:16.630Z,18.90
2019-03-28T20:05:48.477Z,17.13
2019-03-28T20:08:18.303Z,13.60
2019-03-28T20:10:48.568Z,13.53
2019-03-28T20:13:18.164Z,14.03
2019-03-28T20:15:47.939Z,16.47
2019-03-28T20:18:17.522Z,16.13
2019-03-28T20:20:47.225Z,22.17
2019-03-28T20:23:16.852Z,22.13
2019-03-28T20:25:46.447Z,19.37
2019-03-28T20:28:16.406Z,25.40
2019-03-28T20:30:46.153Z,18.03
2019-03-28T20:33:15.847Z,27.83
2019-03-28T20:35:45.479Z,22.20
2019-03-28T20:38:15.091Z,23.77
2019-03-28T20:40:44.763Z,14.10
2019-03-28T20:43:14.426Z,16.17
2019-03-28T20:45:44.038Z,19.23
2019-03-28T20:48:13.636Z,16.67
2019-03-28T20:50:43.401Z,12.93
2019-03-28T20:53:13.059Z,23.33
2019-03-28T20:55:42.691Z,16.40
2019-03-28T20:58:12.273Z,16.83
2019-03-28T21:00:49.068Z,19.97
2019-03-28T21:03:18.838Z,16.47
2019-03-28T21:05:48.531Z,15.67
2019-03-28T21:08:18.184Z,17.07
2019-03-28T21:10:47.807Z,16.20
2019-03-28T21:13:17.390Z,19.23
2019-03-28T21:15:47.088Z,23.07
2019-03-28T21:18:16.772Z,26.53
2019-03-28T21:20:46.453Z,24.43
2019-03-28T21:23:16.057Z,27.93
2019-03-28T21:25:45.682Z,22.10
2019-03-28T21:28:15.302Z,19.53
2019-03-28T21:30:47.540Z,22.27
2019-03-28T21:33:16.271Z,17.03
2019-03-28T21:35:45.854Z,23.27
2019-03-28T21:38:16.304Z,21.00
2019-03-28T21:40:46.881Z,24.77
2019-03-28T21:43:16.469Z,18.07
2019-03-28T21:45:46.086Z,16.40
2019-03-28T21:48:16.914Z,13.77
2019-03-28T21:50:46.774Z,16.83
2019-03-28T21:53:16.400Z,13.73
2019-03-28T21:55:54.984Z,12.97
2019-03-28T21:58:17.337Z,12.23
2019-03-28T22:00:47.021Z,12.27
2019-03-28T22:03:16.996Z,14.43
2019-03-28T22:05:46.808Z,13.43
2019-03-28T22:08:16.413Z,13.27
2019-03-28T22:10:46.003Z,17.20
2019-03-28T22:13:15.620Z,12.67
2019-03-28T22:15:45.313Z,17.17
2019-03-28T22:18:14.909Z,19.40
2019-03-28T22:20:44.494Z,16.37
2019-03-28T22:23:14.356Z,17.10
2019-03-28T22:25:43.938Z,13.53
2019-03-28T22:28:13.618Z,18.53
2019-03-28T22:30:43.241Z,20.27
2019-03-28T22:33:12.832Z,15.10
2019-03-28T22:35:42.446Z,20.47
2019-03-28T22:38:12.035Z,20.47
2019-03-28T22:40:43.794Z,20.50
2019-03-28T22:43:12.990Z,18.27
2019-03-28T22:45:43.812Z,16.30
2019-03-28T22:48:13.537Z,21.07
2019-03-28T22:50:43.296Z,18.20
2019-03-28T22:53:12.983Z,20.67
2019-03-28T22:55:42.677Z,19.17
2019-03-28T22:58:12.266Z,18.23
2019-03-28T23:00:49.167Z,17.23
2019-03-28T23:03:18.931Z,23.50
2019-03-28T23:05:48.593Z,21.57
2019-03-28T23:08:18.179Z,19.70
2019-03-28T23:10:48.083Z,17.63
2019-03-28T23:13:17.756Z,20.77
2019-03-28T23:15:47.437Z,16.80
2019-03-28T23:18:17.028Z,19.50
2019-03-28T23:20:46.638Z,18.77
2019-03-28T23:23:16.253Z,18.00
2019-03-28T23:25:45.867Z,14.33
2019-03-28T23:28:15.459Z,16.30
2019-03-28T23:30:45.064Z,18.53
2019-03-28T23:33:14.678Z,20.47
2019-03-28T23:35:44.267Z,18.73
2019-03-28T23:38:13.878Z,13.57
2019-03-28T23:40:43.464Z,13.60
2019-03-28T23:43:13.195Z,12.90
2019-03-28T23:45:43.200Z,9.43
2019-03-28T23:48:12.830Z,10.53
2019-03-28T23:50:42.425Z,8.83
2019-03-28T23:53:12.005Z,9.07
2019-03-28T23:55:41.617Z,8.93
2019-03-28T23:58:11.233Z,10.97
